createdAt,value
2018-09-05T00:01:00.264Z,51.92
2018-09-05T00:03:30.768Z,56.50
2018-09-05T00:06:01.064Z,54.73
2018-09-05T00:08:31.377Z,64.03
2018-09-05T00:11:02.177Z,60.50
2018-09-05T00:13:33.168Z,61.75
2018-09-05T00:16:04.982Z,60.38
2018-09-05T00:18:35.482Z,57.10
2018-09-05T00:21:06.114Z,61.23
2018-09-05T00:23:36.620Z,65.95
2018-09-05T00:26:07.504Z,59.67
2018-09-05T00:28:38.012Z,63.78
2018-09-05T00:31:10.800Z,65.10
2018-09-05T00:33:41.808Z,56.50
2018-09-05T00:36:12.461Z,64.47
2018-09-05T00:38:43.301Z,65.25
2018-09-05T00:41:14.284Z,68.25
2018-09-05T00:43:44.820Z,69.77
2018-09-05T00:46:16.253Z,64.82
2018-09-05T00:48:46.756Z,67.95
2018-09-05T00:51:17.264Z,66.17
2018-09-05T00:53:47.836Z,67.53
2018-09-05T00:56:18.661Z,72.53
2018-09-05T00:58:48.941Z,76.92
2018-09-05T01:01:19.476Z,71.40
2018-09-05T01:03:50.021Z,74.25
2018-09-05T01:06:20.573Z,75.57
2018-09-05T01:08:51.122Z,68.28
2018-09-05T01:11:21.421Z,76.35
2018-09-05T01:13:51.708Z,70.97
2018-09-05T01:16:22.712Z,72.12
2018-09-05T01:18:53.004Z,72.75
2018-09-05T01:21:23.627Z,72.80
2018-09-05T01:23:54.364Z,67.80
2018-09-05T01:26:25.836Z,73.40
2018-09-05T01:28:56.356Z,69.17
2018-09-05T01:31:27.325Z,69.25
2018-09-05T01:33:58.057Z,72.65
2018-09-05T01:36:29.514Z,69.77
2018-09-05T01:38:59.809Z,69.10
2018-09-05T01:41:32.360Z,70.17
2018-09-05T01:44:03.493Z,77.78
2018-09-05T01:46:34.460Z,81.92
2018-09-05T01:49:05.409Z,77.40
2018-09-05T01:51:36.299Z,76.65
2018-09-05T01:54:07.280Z,69.75
2018-09-05T01:56:38.076Z,78.02
2018-09-05T01:59:08.636Z,76.22
2018-09-05T02:01:39.521Z,80.87
2018-09-05T02:04:09.801Z,82.65
2018-09-05T02:06:40.992Z,74.97
2018-09-05T02:09:13.081Z,82.97
2018-09-05T02:11:44.512Z,77.55
2018-09-05T02:14:15.328Z,77.95
2018-09-05T02:16:45.986Z,84.45
2018-09-05T02:19:16.515Z,81.60
2018-09-05T02:21:47.456Z,79.87
2018-09-05T02:24:18.010Z,76.10
2018-09-05T02:26:48.619Z,75.42
2018-09-05T02:29:18.936Z,84.05
2018-09-05T02:31:49.389Z,78.62
2018-09-05T02:34:19.913Z,84.47
2018-09-05T02:36:50.737Z,81.45
2018-09-05T02:39:21.281Z,86.85
2018-09-05T02:41:52.618Z,82.85
2018-09-05T02:44:23.902Z,84.07
2018-09-05T02:46:54.708Z,78.57
2018-09-05T02:49:25.243Z,82.08
2018-09-05T02:51:56.075Z,86.87
2018-09-05T02:54:26.840Z,80.35
2018-09-05T02:56:57.634Z,76.95
2018-09-05T02:59:28.176Z,83.42
2018-09-05T03:01:59.015Z,81.45
2018-09-05T03:04:29.546Z,82.50
2018-09-05T03:07:00.346Z,82.27
2018-09-05T03:09:30.961Z,82.10
2018-09-05T03:12:01.407Z,81.63
2018-09-05T03:14:32.209Z,81.02
2018-09-05T03:17:03.025Z,89.20
2018-09-05T03:19:33.538Z,84.32
2018-09-05T03:22:04.373Z,85.10
2018-09-05T03:24:34.689Z,89.87
2018-09-05T03:27:05.689Z,87.88
2018-09-05T03:29:36.230Z,90.92
2018-09-05T03:32:06.858Z,86.87
2018-09-05T03:34:37.662Z,85.28
2018-09-05T03:37:08.482Z,80.92
2018-09-05T03:39:38.797Z,85.20
2018-09-05T03:42:09.125Z,89.83
2018-09-05T03:44:40.002Z,84.52
2018-09-05T03:47:10.907Z,84.60
2018-09-05T03:49:41.732Z,86.55
2018-09-05T03:52:12.579Z,88.65
2018-09-05T03:54:42.925Z,93.17
2018-09-05T03:57:13.461Z,81.85
2018-09-05T03:59:43.798Z,89.17
2018-09-05T04:02:14.594Z,90.87
2018-09-05T04:04:44.908Z,85.22
2018-09-05T04:07:15.533Z,94.95
2018-09-05T04:09:46.186Z,92.37
2018-09-05T04:12:16.894Z,88.30
2018-09-05T04:14:48.121Z,87.95
2018-09-05T04:17:18.737Z,84.97
2018-09-05T04:19:49.330Z,83.17
2018-09-05T04:22:19.691Z,86.02
2018-09-05T04:24:50.018Z,82.82
2018-09-05T04:27:20.613Z,78.87
2018-09-05T04:29:51.459Z,80.87
2018-09-05T04:32:22.210Z,74.82
2018-09-05T04:34:53.018Z,77.37
2018-09-05T04:37:23.771Z,72.50
2018-09-05T04:39:54.313Z,72.10
2018-09-05T04:42:25.345Z,73.05
2018-09-05T04:44:56.077Z,65.87
2018-09-05T04:47:26.930Z,66.30
2018-09-05T04:49:57.442Z,63.80
2018-09-05T04:52:28.349Z,66.05
2018-09-05T04:54:59.093Z,61.70
2018-09-05T04:57:29.962Z,65.25
2018-09-05T05:00:00.522Z,55.75
2018-09-05T05:02:31.122Z,58.42
2018-09-05T05:05:01.654Z,49.53
2018-09-05T05:07:32.203Z,46.40
2018-09-05T05:10:02.757Z,43.13
2018-09-05T05:12:33.636Z,40.78
2018-09-05T05:15:04.340Z,39.85
2018-09-05T05:17:34.914Z,41.58
2018-09-05T05:20:05.542Z,34.30
2018-09-05T05:22:36.126Z,28.77
2018-09-05T05:25:06.897Z,35.48
2018-09-05T05:27:37.222Z,25.52
2018-09-05T05:30:07.858Z,31.25
2018-09-05T05:32:38.272Z,31.23
2018-09-05T05:35:09.142Z,27.55
2018-09-05T05:37:40.041Z,29.02
2018-09-05T05:40:11.502Z,32.00
2018-09-05T05:42:42.462Z,31.50
2018-09-05T05:45:13.235Z,35.30
2018-09-05T05:47:44.538Z,31.48
2018-09-05T05:50:15.414Z,32.95
2018-09-05T05:52:46.526Z,34.00
2018-09-05T05:55:17.345Z,30.75
2018-09-05T05:57:48.888Z,37.95
2018-09-05T06:00:22.898Z,34.03
2018-09-05T06:02:54.159Z,40.70
2018-09-05T06:05:24.991Z,36.17
2018-09-05T06:07:56.361Z,44.73
2018-09-05T06:10:27.738Z,32.73
2018-09-05T06:12:59.290Z,34.55
2018-09-05T06:15:29.854Z,35.45
2018-09-05T06:18:01.237Z,34.92
2018-09-05T06:20:32.207Z,38.70
2018-09-05T06:23:02.807Z,37.58
2018-09-05T06:25:33.347Z,33.98
2018-09-05T06:28:03.897Z,33.45
2018-09-05T06:30:34.702Z,32.75
2018-09-05T06:33:05.878Z,33.28
2018-09-05T06:35:36.257Z,29.90
2018-09-05T06:38:08.139Z,30.25
2018-09-05T06:40:38.654Z,33.55
2018-09-05T06:43:09.072Z,25.15
2018-09-05T06:45:39.624Z,25.27
2018-09-05T06:48:10.205Z,27.62
2018-09-05T06:50:40.769Z,23.57
2018-09-05T06:53:11.322Z,22.95
2018-09-05T06:55:42.202Z,29.27
2018-09-05T06:58:12.791Z,30.48
2018-09-05T07:00:44.000Z,27.90
2018-09-05T07:03:15.601Z,29.07
2018-09-05T07:05:46.138Z,29.23
2018-09-05T07:08:16.985Z,29.80
2018-09-05T07:10:47.554Z,28.20
2018-09-05T07:13:18.127Z,26.95
2018-09-05T07:15:48.465Z,22.37
2018-09-05T07:18:19.159Z,20.88
2018-09-05T07:20:49.722Z,36.08
2018-09-05T07:23:20.808Z,42.80
2018-09-05T07:25:51.546Z,27.98
2018-09-05T07:28:22.358Z,32.30
2018-09-05T07:30:52.970Z,31.93
2018-09-05T07:33:23.798Z,37.20
2018-09-05T07:35:54.361Z,67.10
2018-09-05T07:38:25.135Z,62.33
2018-09-05T07:40:55.675Z,128.93
2018-09-05T07:43:26.047Z,74.35
2018-09-05T07:45:56.778Z,32.40
2018-09-05T07:48:27.640Z,32.30
2018-09-05T07:50:58.213Z,38.42
2018-09-05T07:53:29.035Z,74.05
2018-09-05T07:55:59.698Z,208.55
2018-09-05T07:58:30.026Z,52.50
2018-09-05T08:01:00.592Z,39.60
2018-09-05T08:03:31.613Z,51.73
2018-09-05T08:06:02.131Z,52.23
2018-09-05T08:08:32.462Z,42.70
2018-09-05T08:11:03.037Z,43.28
2018-09-05T08:13:33.633Z,36.23
2018-09-05T08:16:04.201Z,62.58
2018-09-05T08:18:34.857Z,53.80
2018-09-05T08:21:05.474Z,39.30
2018-09-05T08:23:36.416Z,51.68
2018-09-05T08:26:07.029Z,38.05
2018-09-05T08:28:37.634Z,50.70
2018-09-05T08:31:08.198Z,43.08
2018-09-05T08:33:38.782Z,39.13
2018-09-05T08:36:09.793Z,26.07
2018-09-05T08:38:40.112Z,34.90
2018-09-05T08:41:11.744Z,34.75
2018-09-05T14:02:51.960Z,10.20
2018-09-05T14:05:23.005Z,12.37
2018-09-05T14:07:54.020Z,12.07
2018-09-05T14:10:24.715Z,11.85
2018-09-05T14:12:55.261Z,10.58
2018-09-05T14:15:25.974Z,12.33
2018-09-05T14:17:56.792Z,10.85
2018-09-05T14:20:27.559Z,11.95
2018-09-05T14:22:58.655Z,11.70
2018-09-05T14:25:28.927Z,11.43
2018-09-05T14:27:59.490Z,12.45
2018-09-05T14:30:30.050Z,13.58
2018-09-05T14:33:00.694Z,13.93
2018-09-05T14:35:31.300Z,12.15
2018-09-05T14:38:02.638Z,14.40
2018-09-05T14:42:34.439Z,13.65
2018-09-05T14:45:05.027Z,13.38
2018-09-05T14:47:35.520Z,13.88
2018-09-05T14:50:06.572Z,12.78
2018-09-05T14:52:37.159Z,15.98
2018-09-05T14:55:07.748Z,14.20
2018-09-05T14:57:39.150Z,14.05
2018-09-05T15:00:09.716Z,12.03
2018-09-05T15:02:40.526Z,12.75
2018-09-05T15:05:11.179Z,13.55
2018-09-05T15:07:45.896Z,11.93
2018-09-05T15:10:16.123Z,12.70
2018-09-05T15:12:46.975Z,12.35
2018-09-05T15:15:17.562Z,14.73
2018-09-05T15:17:48.466Z,15.75
2018-09-05T15:20:19.193Z,13.93
2018-09-05T15:22:49.840Z,13.43
2018-09-05T15:25:20.415Z,12.55
2018-09-05T15:27:50.987Z,15.40
2018-09-05T15:30:22.235Z,14.55
2018-09-05T15:32:52.927Z,15.03
2018-09-05T15:35:23.746Z,15.40
2018-09-05T15:37:54.711Z,13.03
2018-09-05T15:40:25.289Z,13.60
2018-09-05T15:42:55.978Z,15.48
2018-09-05T15:45:27.571Z,13.22
2018-09-05T15:47:58.599Z,14.35
2018-09-05T15:50:29.288Z,14.15
2018-09-05T15:52:59.832Z,15.98
2018-09-05T15:55:30.430Z,14.75
2018-09-05T15:58:01.028Z,14.68
2018-09-05T16:00:31.924Z,18.57
2018-09-05T16:03:02.503Z,16.50
2018-09-05T16:05:33.295Z,14.00
2018-09-05T16:08:04.139Z,18.05
2018-09-05T16:10:34.710Z,17.30
2018-09-05T16:13:05.279Z,15.72
2018-09-05T16:15:36.189Z,13.78
2018-09-05T16:18:06.646Z,18.48
2018-09-05T16:20:37.223Z,14.73
2018-09-05T16:23:07.862Z,15.43
2018-09-05T16:25:38.442Z,13.80
2018-09-05T16:28:08.786Z,13.30
2018-09-05T16:30:39.350Z,18.80
2018-09-05T16:33:09.942Z,13.15
2018-09-05T16:35:40.812Z,14.33
2018-09-05T16:38:11.561Z,15.32
2018-09-05T16:40:41.923Z,18.02
2018-09-05T16:43:12.302Z,18.75
2018-09-05T16:45:42.883Z,18.12
2018-09-05T16:48:13.771Z,20.70
2018-09-05T16:50:47.567Z,21.68
2018-09-05T16:53:21.931Z,24.67
2018-09-05T16:55:53.032Z,22.48
2018-09-05T16:58:23.607Z,21.90
2018-09-05T17:00:54.263Z,21.68
2018-09-05T17:03:25.018Z,23.98
2018-09-05T17:05:55.618Z,23.40
2018-09-05T17:08:26.639Z,25.85
2018-09-05T17:10:57.241Z,26.75
2018-09-05T17:13:27.767Z,24.23
2018-09-05T17:15:58.336Z,27.50
2018-09-05T17:18:29.139Z,28.32
2018-09-05T17:20:59.931Z,31.48
2018-09-05T17:23:30.724Z,33.15
2018-09-05T17:26:01.576Z,35.73
2018-09-05T17:28:32.371Z,42.15
2018-09-05T17:31:03.458Z,39.30
2018-09-05T17:33:34.087Z,43.00
2018-09-05T17:36:04.723Z,40.12
2018-09-05T17:38:35.396Z,44.25
2018-09-05T17:41:06.084Z,37.80
2018-09-05T17:43:37.486Z,39.98
2018-09-05T17:46:07.919Z,41.25
2018-09-05T17:48:38.494Z,41.05
2018-09-05T17:51:08.902Z,41.83
2018-09-05T17:53:39.588Z,38.78
2018-09-05T17:56:38.045Z,43.33
2018-09-05T17:59:09.170Z,47.38
2018-09-05T18:01:39.867Z,39.63
2018-09-05T18:04:10.363Z,41.70
2018-09-05T18:06:40.906Z,45.15
2018-09-05T18:09:12.313Z,45.23
2018-09-05T18:11:42.890Z,42.93
2018-09-05T18:14:13.814Z,43.90
2018-09-05T18:16:44.735Z,49.42
2018-09-05T18:19:15.348Z,41.20
2018-09-05T18:21:45.627Z,36.75
2018-09-05T18:24:16.194Z,28.30
2018-09-05T18:26:46.721Z,30.40
2018-09-05T18:29:16.982Z,27.17
2018-09-05T18:31:47.518Z,32.78
2018-09-05T18:34:18.090Z,31.30
2018-09-05T18:36:48.723Z,30.95
2018-09-05T18:39:19.932Z,26.65
2018-09-05T18:41:50.517Z,28.10
2018-09-05T18:44:21.538Z,28.55
2018-09-05T18:46:51.902Z,32.65
2018-09-05T18:49:22.559Z,34.13
2018-09-05T18:51:53.738Z,33.55
2018-09-05T18:54:24.316Z,32.48
2018-09-05T18:56:54.867Z,27.95
2018-09-05T18:59:25.435Z,32.20
2018-09-05T19:01:55.991Z,27.37
2018-09-05T19:04:26.546Z,31.48
2018-09-05T19:06:58.018Z,32.15
2018-09-05T19:09:28.557Z,27.98
2018-09-05T19:11:59.538Z,27.75
2018-09-05T19:14:30.350Z,30.30
2018-09-05T19:17:01.195Z,31.60
2018-09-05T19:19:31.746Z,26.68
2018-09-05T19:22:02.082Z,31.87
2018-09-05T19:24:32.626Z,28.32
2018-09-05T19:27:03.180Z,27.62
2018-09-05T19:29:33.790Z,27.85
2018-09-05T19:32:04.123Z,28.20
2018-09-05T19:34:35.598Z,33.53
2018-09-05T19:37:06.146Z,28.20
2018-09-05T19:39:36.747Z,33.42
2018-09-05T19:42:07.490Z,34.20
2018-09-05T19:44:38.059Z,33.63
2018-09-05T19:47:08.624Z,38.45
2018-09-05T19:49:39.726Z,35.00
2018-09-05T19:52:10.396Z,35.35
2018-09-05T19:54:41.124Z,37.45
2018-09-05T19:57:11.934Z,35.03
2018-09-05T19:59:42.762Z,37.85
2018-09-05T20:02:13.682Z,38.02
2018-09-05T20:04:44.263Z,39.42
2018-09-05T20:07:14.821Z,36.05
2018-09-05T20:09:45.392Z,38.58
2018-09-05T20:12:16.230Z,37.42
2018-09-05T20:14:46.815Z,38.45
2018-09-05T20:17:18.312Z,42.95
2018-09-05T20:19:48.906Z,40.33
2018-09-05T20:22:19.891Z,42.50
2018-09-05T20:24:50.770Z,38.35
2018-09-05T20:27:21.167Z,46.37
2018-09-05T20:29:51.515Z,43.95
2018-09-05T20:32:22.098Z,42.95
2018-09-05T20:34:52.769Z,37.65
2018-09-05T20:37:23.514Z,38.20
2018-09-05T20:39:53.884Z,41.37
2018-09-05T20:42:24.430Z,38.92
2018-09-05T20:44:55.039Z,38.17
2018-09-05T20:47:25.598Z,39.78
2018-09-05T20:49:56.181Z,39.48
2018-09-05T20:52:26.939Z,33.85
2018-09-05T20:54:57.850Z,35.48
2018-09-05T20:57:28.482Z,35.35
2018-09-05T20:59:59.194Z,34.85
2018-09-05T21:02:29.775Z,34.35
2018-09-05T21:05:00.162Z,31.62
2018-09-05T21:07:30.626Z,31.42
2018-09-05T21:10:00.950Z,32.28
2018-09-05T21:12:31.495Z,30.88
2018-09-05T21:15:01.826Z,26.60
2018-09-05T21:17:32.542Z,30.00
2018-09-05T21:20:03.471Z,31.55
2018-09-05T21:22:34.042Z,34.80
2018-09-05T21:25:05.056Z,29.63
2018-09-05T21:27:35.931Z,27.32
2018-09-05T21:30:06.866Z,27.27
2018-09-05T21:32:37.199Z,27.05
2018-09-05T21:35:07.917Z,27.13
2018-09-05T21:37:38.438Z,25.92
2018-09-05T21:40:09.289Z,27.05
2018-09-05T21:42:39.977Z,30.70
2018-09-05T21:45:11.194Z,27.30
2018-09-05T21:47:41.734Z,28.62
2018-09-05T21:50:12.525Z,29.27
2018-09-05T21:52:43.073Z,27.67
2018-09-05T21:55:14.161Z,27.85
2018-09-05T21:57:44.482Z,30.17
2018-09-05T22:00:15.307Z,27.37
2018-09-05T22:02:46.102Z,31.65
2018-09-05T22:05:16.930Z,28.83
2018-09-05T22:07:47.721Z,32.90
2018-09-05T22:10:18.646Z,28.02
2018-09-05T22:12:48.970Z,31.12
2018-09-05T22:15:19.610Z,31.20
2018-09-05T22:17:49.930Z,29.65
2018-09-05T22:20:20.494Z,28.75
2018-09-05T22:22:50.826Z,29.23
2018-09-05T22:25:21.629Z,28.62
2018-09-05T22:27:52.198Z,29.25
2018-09-05T22:30:22.740Z,32.65
2018-09-05T22:32:54.462Z,31.05
2018-09-05T22:35:25.335Z,34.20
2018-09-05T22:37:56.006Z,32.38
2018-09-05T22:40:29.441Z,33.53
2018-09-05T22:43:17.313Z,34.15
2018-09-05T22:46:05.122Z,39.30
2018-09-05T22:48:55.754Z,40.03
2018-09-05T22:52:23.381Z,44.67
2018-09-05T22:55:14.858Z,38.67
2018-09-05T22:58:25.811Z,38.85
2018-09-05T23:02:12.895Z,40.17
2018-09-05T23:05:09.083Z,41.48
2018-09-05T23:07:55.387Z,40.05
2018-09-05T23:10:43.338Z,41.10
2018-09-05T23:13:31.280Z,42.17
2018-09-05T23:16:19.010Z,46.28
2018-09-05T23:21:14.578Z,42.23
2018-09-05T23:24:00.255Z,47.78
2018-09-05T23:26:31.030Z,59.65
2018-09-05T23:29:02.251Z,61.75
2018-09-05T23:31:32.866Z,53.52
2018-09-05T23:34:03.670Z,56.68
2018-09-05T23:36:34.248Z,49.08
2018-09-05T23:39:06.984Z,60.70
2018-09-05T23:41:37.529Z,54.30
2018-09-05T23:44:07.857Z,69.55
2018-09-05T23:46:38.194Z,59.40
2018-09-05T23:49:08.798Z,54.77
2018-09-05T23:51:39.377Z,60.60
2018-09-05T23:54:10.180Z,60.73
2018-09-05T23:56:40.958Z,86.85
2018-09-05T23:59:11.845Z,74.37
